This demonstration page uses our WeatherBlox Daily Observations layout. Learn more.

39.92423, -83.80882

Hourly Observations for April 17, 2019

Temp ( °F °C ) Dew Point ( °F °C ) Humidity (%) Winds ( mph kmh ) Pressure ( in mb ) Visibility ( mi km ) Precip ( " mm )
12:56 am 00:56 Clear 57 13.9 48 8.9 72 72 S 5 7 30.01 1016 10 16.0934 0 0
1:56 am 01:56 Clear 58 14.4 47 8.3 67 67 SSW 8 13 30 1016 10 16.0934 0 0
2:56 am 02:56 Clear 58 14.4 47 8.3 67 67 SSW 8 13 29.99 1016 10 16.0934 0 0
3:56 am 03:56 Clear 56 13.3 47 8.3 72 72 SSW 7 11 30 1016 10 16.0934 0 0
4:56 am 04:56 Clear 55 12.8 46 7.8 72 72 SSW 6 9 29.99 1016 10 16.0934 0 0
5:56 am 05:56 Clear 54 12.2 46 7.8 75 75 SSW 7 11 30 1016 10 16.0934 0 0
6:56 am 06:56 Sunny 54 12.2 46 7.8 75 75 SSW 7 11 30.01 1016 10 16.0934 0 0
7:56 am 07:56 Sunny 57 13.9 47 8.3 69 69 SW 8 13 30.04 1017 10 16.0934 0 0
8:56 am 08:56 Sunny 59 15 48 8.9 67 67 SSW 8 13 30.04 1017 10 16.0934 0 0
9:56 am 09:56 Sunny 63 17.2 49 9.4 60 60 SSW 9 15 30.02 1017 10 16.0934 0 0
11:56 am 11:56 Sunny 68 20 51 10.6 55 55 SSW 8 13 30.01 1016 10 16.0934 0 0
1:56 pm 13:56 Sunny 70 21.1 52 11.1 53 53 SW 13 20 29.97 1015 10 16.0934 0 0
2:56 pm 14:56 Sunny 70 21.1 52 11.1 53 53 S 9 15 29.94 1014 10 16.0934 0 0
3:56 pm 15:56 Sunny 70 21.1 52 11.1 53 53 S 10 17 29.91 1013 10 16.0934 0 0
4:56 pm 16:56 Mostly Sunny 70 21.1 51 10.6 51 51 S 8 13 29.87 1011 10 16.0934 0 0
5:56 pm 17:56 Sunny 71 21.7 52 11.1 51 51 SSW 5 7 29.87 1012 10 16.0934 0 0
6:56 pm 18:56 Sunny 71 21.7 53 11.7 53 53 SSE 13 20 29.85 1011 10 16.0934 0 0
7:56 pm 19:56 Sunny 70 21.1 51 10.6 51 51 S 12 19 29.84 1011 10 16.0934 0 0
8:56 pm 20:56 Clear 67 19.4 52 11.1 59 59 S 9 15 29.83 1010 10 16.0934 0 0
9:56 pm 21:56 Partly Cloudy 66 18.9 52 11.1 61 61 S 8 13 29.83 1010 10 16.0934 0 0.0254
10:56 pm 22:56 Clear 62 16.7 52 11.1 70 70 SSE 8 13 29.81 1010 10 16.0934 0 0
11:56 pm 23:56 Partly Cloudy 61 16.1 52 11.1 72 72 S 6 9 29.8 1009 10 16.0934 0 0

Powered by AerisWeather